MET'MAP v2.0
soon released !

Expected late october,
this new version will be
more efficient, smarter,
and hosted on a brand new
server x3 powerfull...
...and still free !


Not compatible ?
Try the mobile version !

LOG IN : | Subscribe | Disclaimer | Who is Orbifly ? |
ICAO code :

TAF - EPMI Miroslawiec - 09 Apr 2020 10:15 UTC - Data Source NOAA   


- Airport Elevation : 459 ft
- No reported NOTAMs.


EPMI - Miroslawiec

NO METAR
TAF TAF EPMI
Valid from the 09 at 06:00 until the 09 at 15:00 UTC


090500Z 0906/0915 30010KT CAVOK
TEMPO 0909/0912 31015G25KT

Source NOAA


MET'MAP, your aeronautical weather chart ! - Copyright ORBIFLY December 2007

Programming & Development : Alexandra Zaïnal
Co-Developer : Marc-Olivier Méhu
Technical & hardware support : Manuel Goepfert
Concept & Financing : Baudouin d'Aumeries